Time;durP1;ratioP1;P1;durP2;ratioP2;P2;SDS_P1;SDS_P2;PMS_P1;PMS_P2;Temp;Humidity;BMP_temperature;BMP_pressure;BME280_temperature;BME280_humidity;BME280_pressure;Samples;Min_cycle;Max_cycle;Signal;HPM_P1;HPM_P2
2023/10/08 00:01:17;;;;;;;4.53;3.13;;;18.90;87.60;;;;;;6115914;23;20386;-76
2023/10/08 00:03:50;;;;;;;6.63;3.80;;;18.90;87.60;;;;;;6117914;23;20419;-77
2023/10/08 00:06:24;;;;;;;7.80;4.10;;;18.90;87.90;;;;;;6118286;23;20683;-74
2023/10/08 00:08:51;;;;;;;7.80;3.60;;;18.80;88.10;;;;;;6116599;23;20371;-74
2023/10/08 00:11:22;;;;;;;7.07;3.73;;;18.80;88.50;;;;;;6114650;23;20455;-74
2023/10/08 00:13:48;;;;;;;6.67;4.13;;;18.70;88.80;;;;;;6096014;23;20447;-74
2023/10/08 00:16:21;;;;;;;7.77;4.70;;;18.60;89.10;;;;;;6122087;23;20404;-74
2023/10/08 00:18:48;;;;;;;6.50;3.43;;;18.60;89.50;;;;;;6119590;23;20151;-74
2023/10/08 00:21:16;;;;;;;7.50;4.87;;;18.50;89.80;;;;;;6117485;23;20783;-74
2023/10/08 00:23:57;;;;;;;6.60;4.27;;;18.40;90.20;;;;;;6093831;23;20183;-74
2023/10/08 00:26:29;;;;;;;5.20;3.60;;;18.30;90.40;;;;;;6092946;23;20399;-75
2023/10/08 00:29:06;;;;;;;6.50;4.00;;;18.30;90.80;;;;;;6114831;23;20368;-73
2023/10/08 00:31:40;;;;;;;5.33;3.73;;;18.30;91.20;;;;;;6061201;23;20518;-76
2023/10/08 00:34:12;;;;;;;7.20;4.67;;;18.20;91.40;;;;;;6062500;23;20437;-75
2023/10/08 00:36:41;;;;;;;8.00;3.87;;;18.20;91.70;;;;;;6058557;23;20383;-75
2023/10/08 00:39:10;;;;;;;5.97;4.00;;;18.20;91.90;;;;;;6010996;23;20696;-75
2023/10/08 00:41:38;;;;;;;4.40;3.37;;;18.10;91.80;;;;;;6057659;23;20787;-74
2023/10/08 00:44:07;;;;;;;7.10;4.43;;;18.10;91.80;;;;;;6059635;23;20437;-76
2023/10/08 00:46:39;;;;;;;7.33;4.07;;;18.20;92.00;;;;;;6086277;23;20381;-74
2023/10/08 00:57:25;;;;;;;5.30;3.47;;;18.10;92.20;;;;;;5999501;23;20910;-74
2023/10/08 00:59:55;;;;;;;6.57;4.10;;;18.10;92.20;;;;;;5999887;23;20796;-75
2023/10/08 01:02:26;;;;;;;4.97;3.63;;;18.20;92.20;;;;;;6025609;23;20387;-76
2023/10/08 01:04:55;;;;;;;6.53;3.87;;;18.10;92.10;;;;;;6024963;23;20390;-74
2023/10/08 01:07:23;;;;;;;4.80;3.73;;;18.20;92.20;;;;;;6022097;23;20367;-75
2023/10/08 01:09:51;;;;;;;6.37;3.67;;;18.10;92.20;;;;;;6050711;23;20410;-73
2023/10/08 01:14:55;;;;;;;7.17;3.50;;;18.00;92.40;;;;;;6054260;23;20436;-73
2023/10/08 01:17:31;;;;;;;6.60;4.53;;;18.00;92.60;;;;;;6026688;23;20374;-74
2023/10/08 01:20:08;;;;;;;9.63;4.33;;;17.90;92.70;;;;;;6052905;23;20384;-74
2023/10/08 01:22:34;;;;;;;7.20;4.10;;;17.90;92.90;;;;;;6027551;23;20381;-73
2023/10/08 01:25:01;;;;;;;6.40;3.80;;;17.70;93.10;;;;;;6050514;23;20429;-73
2023/10/08 01:27:34;;;;;;;7.77;4.90;;;17.70;93.30;;;;;;6026987;23;20146;-75
2023/10/08 01:30:17;;;;;;;5.43;3.77;;;17.60;93.60;;;;;;6026903;23;20375;-73
2023/10/08 01:32:44;;;;;;;7.27;3.60;;;17.60;93.80;;;;;;6134525;23;20672;-75
2023/10/08 01:35:22;;;;;;;4.70;3.37;;;17.40;94.20;;;;;;6114069;23;20403;-74
2023/10/08 01:37:56;;;;;;;6.30;4.03;;;17.40;94.60;;;;;;6117096;23;20777;-73
2023/10/08 01:40:25;;;;;;;4.57;3.40;;;17.40;95.00;;;;;;6114250;23;20363;-73
2023/10/08 01:42:53;;;;;;;5.73;3.50;;;17.30;95.10;;;;;;6088268;23;20775;-74
2023/10/08 01:45:20;;;;;;;4.00;2.50;;;17.20;95.30;;;;;;6114054;23;20384;-74
2023/10/08 01:47:54;;;;;;;3.90;2.90;;;17.20;96.00;;;;;;6092755;23;20387;-75
2023/10/08 01:50:21;;;;;;;7.43;3.77;;;17.10;95.90;;;;;;6113713;23;20366;-73
2023/10/08 01:52:48;;;;;;;6.30;4.37;;;17.00;96.30;;;;;;6092793;23;20409;-76
2023/10/08 01:55:19;;;;;;;6.60;3.63;;;17.10;96.50;;;;;;6119019;23;20403;-74
2023/10/08 01:57:46;;;;;;;5.57;3.40;;;17.10;96.40;;;;;;6145866;23;20408;-74
2023/10/08 02:00:19;;;;;;;6.10;4.30;;;17.00;96.40;;;;;;6094986;23;20405;-75
2023/10/08 02:02:47;;;;;;;5.73;3.57;;;17.10;96.40;;;;;;6094986;23;20379;-75
2023/10/08 02:05:14;;;;;;;7.23;3.43;;;17.10;96.40;;;;;;6118876;23;20387;-73
2023/10/08 02:07:41;;;;;;;6.53;4.50;;;17.00;96.40;;;;;;6144294;23;20688;-75
2023/10/08 02:10:10;;;;;;;4.33;3.17;;;17.00;96.50;;;;;;6092962;23;20365;-75
2023/10/08 02:12:39;;;;;;;5.40;3.50;;;17.00;96.50;;;;;;6117216;23;20414;-73
2023/10/08 02:15:06;;;;;;;5.87;3.87;;;17.00;96.90;;;;;;6093787;23;20401;-74
2023/10/08 02:17:32;;;;;;;4.30;3.20;;;16.90;96.90;;;;;;6093419;23;20375;-74
2023/10/08 02:19:58;;;;;;;5.57;3.23;;;16.90;97.30;;;;;;6092188;23;20376;-73
2023/10/08 02:22:24;;;;;;;3.93;3.20;;;16.80;97.60;;;;;;6141958;23;20361;-73
2023/10/08 02:24:50;;;;;;;5.33;3.23;;;16.70;97.80;;;;;;6116517;23;20179;-74
2023/10/08 02:27:16;;;;;;;5.40;3.23;;;16.70;98.30;;;;;;6114941;23;20395;-74
2023/10/08 02:29:45;;;;;;;4.37;2.83;;;16.60;98.70;;;;;;6113174;23;20389;-73
2023/10/08 02:32:10;;;;;;;4.90;2.47;;;16.60;99.10;;;;;;6113820;23;20504;-73
2023/10/08 02:34:36;;;;;;;6.13;3.77;;;16.60;99.30;;;;;;6113989;23;20392;-74
2023/10/08 02:37:05;;;;;;;5.57;3.53;;;16.60;99.50;;;;;;6139595;23;20427;-74
2023/10/08 02:39:31;;;;;;;4.27;3.20;;;16.60;99.60;;;;;;6113752;23;20131;-74
2023/10/08 02:41:59;;;;;;;6.57;3.60;;;16.70;99.50;;;;;;6113372;23;20432;-74
2023/10/08 02:44:25;;;;;;;5.37;3.77;;;16.60;99.30;;;;;;6114482;23;20404;-72
2023/10/08 02:46:51;;;;;;;5.13;3.90;;;16.70;99.20;;;;;;6089330;23;20374;-73
2023/10/08 02:49:22;;;;;;;4.10;3.20;;;16.80;99.00;;;;;;6088741;23;20390;-75
2023/10/08 02:51:51;;;;;;;7.73;3.70;;;16.80;98.70;;;;;;6110295;23;20421;-75
2023/10/08 02:54:23;;;;;;;6.53;3.53;;;16.80;98.50;;;;;;6112864;23;20451;-73
2023/10/08 02:56:57;;;;;;;5.63;3.70;;;16.90;98.40;;;;;;6088934;23;20696;-74
2023/10/08 02:59:24;;;;;;;4.27;3.30;;;16.90;98.20;;;;;;6112606;23;20381;-74
2023/10/08 03:01:55;;;;;;;6.17;4.20;;;16.90;98.00;;;;;;6112738;23;20445;-74
2023/10/08 03:04:22;;;;;;;6.00;3.53;;;16.90;97.90;;;;;;6113103;23;20406;-73
2023/10/08 03:06:52;;;;;;;6.63;4.40;;;16.90;97.80;;;;;;6111858;23;20366;-74
2023/10/08 03:09:31;;;;;;;7.00;3.73;;;16.90;97.80;;;;;;6140457;23;20457;-74
2023/10/08 03:11:58;;;;;;;6.47;4.17;;;16.90;97.60;;;;;;6113656;23;20418;-75
2023/10/08 03:14:26;;;;;;;5.10;2.80;;;16.90;97.60;;;;;;6112461;23;20413;-73
2023/10/08 03:16:53;;;;;;;3.93;2.90;;;16.90;97.70;;;;;;6136296;23;20365;-74
2023/10/08 03:19:21;;;;;;;6.60;4.13;;;16.80;97.60;;;;;;6137370;23;20361;-74
2023/10/08 03:21:51;;;;;;;3.83;2.80;;;16.80;97.70;;;;;;6110886;23;20633;-74
2023/10/08 03:24:29;;;;;;;5.17;3.80;;;16.70;97.80;;;;;;6111794;23;20397;-73
2023/10/08 03:27:07;;;;;;;4.00;2.70;;;16.70;97.80;;;;;;6112484;23;20385;-74
2023/10/08 03:29:40;;;;;;;5.47;3.50;;;16.70;98.00;;;;;;6136279;23;20368;-74
2023/10/08 03:32:18;;;;;;;4.70;3.30;;;16.70;98.20;;;;;;6111069;23;20689;-75
2023/10/08 03:34:46;;;;;;;6.47;3.57;;;16.60;98.20;;;;;;6086646;23;20402;-73
2023/10/08 03:37:20;;;;;;;5.63;3.30;;;16.60;98.20;;;;;;6137057;23;20461;-73
2023/10/08 03:40:00;;;;;;;7.17;3.60;;;16.70;98.20;;;;;;6137168;23;20446;-73
2023/10/08 03:42:33;;;;;;;5.93;3.20;;;16.70;98.10;;;;;;6140608;23;20367;-73
2023/10/08 03:45:09;;;;;;;7.50;2.90;;;16.60;98.10;;;;;;6087745;23;20409;-73
2023/10/08 03:47:38;;;;;;;8.47;3.80;;;16.60;98.40;;;;;;6110056;23;20459;-74
2023/10/08 03:50:09;;;;;;;6.67;3.30;;;16.60;98.50;;;;;;6087827;23;20369;-74
2023/10/08 03:52:38;;;;;;;5.00;3.50;;;16.50;98.80;;;;;;6110112;23;20416;-73
2023/10/08 03:55:21;;;;;;;3.90;3.03;;;16.50;98.80;;;;;;6109717;23;20425;-73
2023/10/08 03:57:56;;;;;;;5.67;3.47;;;16.60;98.90;;;;;;6109687;23;20409;-73
2023/10/08 04:00:28;;;;;;;5.57;3.53;;;16.60;98.70;;;;;;6135786;23;20428;-73
2023/10/08 04:02:55;;;;;;;7.53;3.60;;;16.70;98.50;;;;;;6084315;23;20375;-72
2023/10/08 04:05:40;;;;;;;6.83;4.57;;;16.70;98.20;;;;;;6109696;23;20370;-75
2023/10/08 04:08:16;;;;;;;5.23;3.50;;;16.80;98.00;;;;;;6091084;23;20381;-73
2023/10/08 04:13:09;;;;;;;7.40;3.97;;;16.80;97.60;;;;;;6109370;23;20668;-73
2023/10/08 04:15:41;;;;;;;3.73;2.80;;;16.80;97.70;;;;;;6107912;23;20149;-73
2023/10/08 04:18:08;;;;;;;5.07;3.40;;;16.70;97.80;;;;;;6107489;23;20469;-73
2023/10/08 04:20:39;;;;;;;5.10;3.50;;;16.60;98.10;;;;;;6134827;23;20618;-72
2023/10/08 04:23:13;;;;;;;6.80;3.80;;;16.60;98.30;;;;;;6133476;23;20380;-73
2023/10/08 04:25:39;;;;;;;7.10;4.27;;;16.60;98.50;;;;;;6088793;23;20396;-73
2023/10/08 04:28:06;;;;;;;8.73;3.80;;;16.60;98.70;;;;;;6147317;23;20348;-73
2023/10/08 04:30:35;;;;;;;5.87;3.90;;;16.50;99.10;;;;;;6149101;23;20365;-73
2023/10/08 04:33:07;;;;;;;8.80;4.10;;;16.50;98.90;;;;;;6121614;23;20423;-75
2023/10/08 04:35:44;;;;;;;5.77;3.20;;;16.50;99.10;;;;;;6099516;23;20356;-72
2023/10/08 04:38:11;;;;;;;5.90;3.60;;;16.50;99.30;;;;;;6124218;23;20374;-74
2023/10/08 04:40:47;;;;;;;3.97;3.30;;;16.40;99.60;;;;;;6117308;23;20371;-74
2023/10/08 04:43:27;;;;;;;5.20;3.33;;;16.30;99.90;;;;;;6139859;23;20478;-72
2023/10/08 04:45:53;;;;;;;5.60;3.47;;;16.30;99.90;;;;;;6091611;23;20413;-73
2023/10/08 04:48:20;;;;;;;10.03;3.60;;;16.20;99.90;;;;;;6089950;23;20368;-73
2023/10/08 04:51:00;;;;;;;5.33;3.80;;;16.20;99.90;;;;;;6089037;23;20529;-72
2023/10/08 04:53:36;;;;;;;7.73;3.70;;;16.20;99.90;;;;;;6112635;23;20396;-72
2023/10/08 04:56:13;;;;;;;6.53;3.73;;;16.20;99.90;;;;;;6107247;23;20436;-71
2023/10/08 04:58:46;;;;;;;5.27;3.23;;;16.20;99.90;;;;;;6110880;23;20362;-74
2023/10/08 05:01:20;;;;;;;5.00;3.90;;;16.20;99.90;;;;;;6106923;23;20407;-73
2023/10/08 05:06:50;;;;;;;11.23;4.10;;;16.20;99.90;;;;;;6107419;23;20364;-72
2023/10/08 05:17:21;;;;;;;6.77;3.70;;;16.20;99.90;;;;;;6107375;23;20383;-74
2023/10/08 05:20:00;;;;;;;5.43;3.77;;;16.20;99.90;;;;;;6105446;23;20387;-72
2023/10/08 05:30:25;;;;;;;5.17;3.27;;;16.00;99.90;;;;;;6107374;23;20388;-73
2023/10/08 05:49:03;;;;;;;4.30;3.23;;;15.80;99.90;;;;;;6109005;23;20420;-73
2023/10/08 06:02:28;;;;;;;7.97;5.00;;;15.80;99.90;;;;;;6137177;23;20384;-72
2023/10/08 06:07:56;;;;;;;7.30;4.83;;;15.80;99.90;;;;;;6089843;23;20382;-73
2023/10/08 06:13:55;;;;;;;8.97;4.07;;;15.90;99.90;;;;;;6109252;23;20419;-73
2023/10/08 06:18:30;;;;;;;7.80;4.00;;;16.00;99.90;;;;;;6137783;23;20600;-73
2023/10/08 06:21:11;;;;;;;7.90;4.40;;;16.00;99.90;;;;;;6088382;23;20372;-73
2023/10/08 06:23:41;;;;;;;9.03;4.20;;;16.10;99.90;;;;;;6086642;23;20402;-72
2023/10/08 06:26:20;;;;;;;7.90;4.90;;;16.10;99.90;;;;;;6111810;23;20384;-73
2023/10/08 06:28:46;;;;;;;8.67;4.00;;;16.10;99.90;;;;;;6113230;23;20463;-73
2023/10/08 06:31:15;;;;;;;7.20;3.90;;;16.10;99.90;;;;;;6110590;23;20414;-72
2023/10/08 06:33:42;;;;;;;7.03;4.47;;;16.20;99.90;;;;;;6136622;23;20171;-73
2023/10/08 06:38:41;;;;;;;6.47;4.40;;;16.30;99.90;;;;;;6110327;23;20442;-72
2023/10/08 06:43:48;;;;;;;5.93;3.57;;;16.30;99.90;;;;;;6111185;23;20438;-72
2023/10/08 06:46:15;;;;;;;6.97;3.77;;;16.30;99.90;;;;;;6112159;23;20417;-72
2023/10/08 06:48:42;;;;;;;7.73;4.10;;;16.40;99.90;;;;;;6087556;23;20391;-73
2023/10/08 06:51:12;;;;;;;8.03;3.90;;;16.40;99.90;;;;;;6113986;23;20422;-73
2023/10/08 06:53:48;;;;;;;6.83;4.20;;;16.40;99.90;;;;;;6111939;23;20434;-73
2023/10/08 06:56:19;;;;;;;8.10;3.83;;;16.40;99.90;;;;;;6111002;23;20423;-74
2023/10/08 06:58:49;;;;;;;10.20;4.80;;;16.50;99.90;;;;;;6111347;23;20384;-73
2023/10/08 07:01:40;;;;;;;9.50;5.50;;;16.60;99.90;;;;;;6109986;23;20391;-75
2023/10/08 07:04:11;;;;;;;7.73;4.30;;;16.60;99.90;;;;;;6137933;23;20403;-73
2023/10/08 07:06:41;;;;;;;5.70;3.80;;;16.70;99.90;;;;;;6112731;23;20437;-72
2023/10/08 07:09:23;;;;;;;4.60;3.13;;;16.70;99.90;;;;;;6113251;23;20395;-73
2023/10/08 07:11:55;;;;;;;8.10;4.23;;;16.80;99.90;;;;;;6087385;23;20473;-73
2023/10/08 07:14:26;;;;;;;5.50;3.83;;;16.90;99.90;;;;;;6088977;23;20436;-73
2023/10/08 07:16:59;;;;;;;5.67;3.50;;;17.00;99.90;;;;;;6137869;23;20368;-73
2023/10/08 07:19:39;;;;;;;5.23;3.20;;;17.00;99.90;;;;;;6137232;23;20631;-73
2023/10/08 07:22:28;;;;;;;3.77;2.87;;;17.20;99.90;;;;;;6114172;23;20381;-73
2023/10/08 07:24:54;;;;;;;9.53;4.33;;;17.20;99.90;;;;;;6089971;23;20427;-73
2023/10/08 07:27:21;;;;;;;9.33;4.20;;;17.20;99.90;;;;;;6139027;23;20380;-75
2023/10/08 07:29:48;;;;;;;7.23;4.07;;;17.20;99.90;;;;;;6112913;23;20161;-72
2023/10/08 07:32:18;;;;;;;5.77;4.20;;;17.20;99.90;;;;;;6112991;23;20436;-74
2023/10/08 07:34:44;;;;;;;11.30;5.90;;;17.30;99.90;;;;;;6139503;23;20454;-73
2023/10/08 07:37:11;;;;;;;7.60;4.67;;;17.30;99.90;;;;;;6138445;23;20795;-73
2023/10/08 07:39:46;;;;;;;8.00;4.53;;;17.40;99.90;;;;;;6106649;23;20157;-73
2023/10/08 07:42:12;;;;;;;11.33;5.20;;;17.40;99.90;;;;;;6107156;23;20667;-72
2023/10/08 07:44:38;;;;;;;7.50;3.67;;;17.50;99.90;;;;;;6082797;23;20418;-73
2023/10/08 07:47:09;;;;;;;7.40;4.10;;;17.60;99.90;;;;;;6081064;23;20139;-73
2023/10/08 07:49:35;;;;;;;5.70;3.73;;;17.70;99.70;;;;;;6058471;23;20388;-76
2023/10/08 07:52:05;;;;;;;7.00;3.73;;;17.80;99.50;;;;;;6108928;23;20415;-74
2023/10/08 07:54:34;;;;;;;8.30;3.93;;;17.80;99.00;;;;;;6082928;23;20404;-73
2023/10/08 07:57:09;;;;;;;7.77;4.70;;;17.80;98.80;;;;;;6057478;23;20414;-73
2023/10/08 07:59:41;;;;;;;10.07;5.37;;;17.90;98.10;;;;;;6057179;23;20424;-74
2023/10/08 08:02:09;;;;;;;7.60;4.70;;;17.90;97.80;;;;;;6105389;23;20721;-74
2023/10/08 08:04:43;;;;;;;8.60;5.07;;;18.00;97.80;;;;;;6104872;23;20825;-72
2023/10/08 08:07:15;;;;;;;9.60;4.47;;;18.00;97.50;;;;;;6105430;23;20735;-73
2023/10/08 08:09:48;;;;;;;8.93;4.30;;;18.00;97.20;;;;;;6061632;23;20380;-73
2023/10/08 08:12:13;;;;;;;6.10;4.30;;;18.10;97.40;;;;;;6133023;23;20408;-72
2023/10/08 08:14:41;;;;;;;7.40;4.30;;;18.20;97.00;;;;;;6109736;23;20386;-72
2023/10/08 08:17:13;;;;;;;7.57;4.27;;;18.40;96.70;;;;;;6106710;23;20152;-73
2023/10/08 08:19:47;;;;;;;6.70;4.60;;;18.50;96.00;;;;;;6134349;23;20639;-73
2023/10/08 08:22:21;;;;;;;6.20;4.40;;;18.60;95.50;;;;;;6110222;23;20365;-73
2023/10/08 08:25:03;;;;;;;9.43;6.30;;;18.60;95.20;;;;;;6109808;23;20494;-73
2023/10/08 08:27:31;;;;;;;12.30;5.80;;;18.60;94.80;;;;;;6134952;23;20391;-73
2023/10/08 08:30:09;;;;;;;8.53;5.17;;;18.50;94.80;;;;;;6110884;23;20391;-72
2023/10/08 08:32:39;;;;;;;10.00;5.10;;;18.40;95.20;;;;;;6110414;23;20508;-73
2023/10/08 08:35:09;;;;;;;9.73;4.70;;;18.30;95.50;;;;;;6111430;23;20423;-72
2023/10/08 08:37:38;;;;;;;7.37;4.70;;;18.30;96.00;;;;;;6111779;23;20388;-74
2023/10/08 08:40:17;;;;;;;9.50;5.10;;;18.30;96.20;;;;;;6111737;23;20672;-72
2023/10/08 08:42:50;;;;;;;8.53;5.23;;;18.30;96.10;;;;;;6110351;23;20368;-75
2023/10/08 08:45:20;;;;;;;8.90;4.60;;;18.40;95.70;;;;;;6135737;23;20402;-73
2023/10/08 08:47:46;;;;;;;11.20;6.60;;;18.40;95.80;;;;;;6114002;23;20648;-75
2023/10/08 08:50:12;;;;;;;8.23;5.63;;;18.50;95.70;;;;;;6136269;23;20376;-72
2023/10/08 08:52:39;;;;;;;7.60;5.50;;;18.60;95.20;;;;;;6053078;23;20425;-72
2023/10/08 08:55:14;;;;;;;11.77;5.60;;;18.60;94.80;;;;;;6032869;23;20418;-75
2023/10/08 08:58:02;;;;;;;11.57;5.50;;;18.60;94.90;;;;;;6031149;23;20389;-74
2023/10/08 09:00:30;;;;;;;10.17;5.93;;;18.60;95.00;;;;;;6031537;23;20462;-74
2023/10/08 09:02:56;;;;;;;7.93;4.87;;;18.60;95.40;;;;;;6005503;23;20390;-74
2023/10/08 09:05:34;;;;;;;9.47;5.43;;;18.70;95.10;;;;;;6029051;23;20373;-74
2023/10/08 09:08:05;;;;;;;7.10;5.03;;;18.90;94.60;;;;;;6028898;23;20389;-73
2023/10/08 09:10:36;;;;;;;10.90;5.50;;;19.00;94.10;;;;;;6027716;23;20403;-74
2023/10/08 09:13:04;;;;;;;10.27;5.90;;;19.20;93.60;;;;;;6005297;23;20433;-74
2023/10/08 09:15:32;;;;;;;12.80;5.13;;;19.30;92.30;;;;;;6028536;23;20389;-72
2023/10/08 09:18:04;;;;;;;7.57;4.80;;;19.40;91.90;;;;;;6030369;23;20383;-76
2023/10/08 09:20:34;;;;;;;6.77;4.60;;;19.40;92.30;;;;;;6029026;23;20375;-73
2023/10/08 09:23:12;;;;;;;14.97;5.67;;;19.50;91.60;;;;;;6022624;23;20400;-74
2023/10/08 09:25:39;;;;;;;8.70;5.10;;;19.60;91.50;;;;;;6113570;23;20396;-75
2023/10/08 09:28:07;;;;;;;16.30;5.73;;;19.60;91.60;;;;;;6113232;23;20706;-75
2023/10/08 09:30:40;;;;;;;13.77;5.03;;;19.60;91.50;;;;;;6111741;23;20412;-73
2023/10/08 09:33:07;;;;;;;9.57;6.00;;;19.80;91.70;;;;;;6089593;23;20451;-74
2023/10/08 09:35:33;;;;;;;9.27;5.73;;;19.80;91.10;;;;;;6114356;23;20676;-73
2023/10/08 09:38:04;;;;;;;19.80;6.53;;;19.90;91.30;;;;;;6113919;23;20361;-74
2023/10/08 09:40:33;;;;;;;12.83;6.43;;;20.10;90.80;;;;;;6088974;23;20380;-73
2023/10/08 09:43:00;;;;;;;12.47;6.93;;;20.10;90.20;;;;;;6115433;23;20369;-75
2023/10/08 09:45:26;;;;;;;17.07;6.17;;;20.20;89.90;;;;;;6113175;23;20380;-74
2023/10/08 09:47:55;;;;;;;15.40;6.97;;;20.20;88.60;;;;;;6113982;23;20373;-74
2023/10/08 09:50:29;;;;;;;9.93;6.27;;;20.20;88.90;;;;;;6137323;23;20388;-73
2023/10/08 09:53:17;;;;;;;10.13;6.30;;;20.10;89.70;;;;;;6090178;23;20431;-75
2023/10/08 09:55:54;;;;;;;13.00;6.90;;;20.40;88.00;;;;;;6092107;23;20421;-75
2023/10/08 09:58:22;;;;;;;14.20;6.73;;;20.30;87.70;;;;;;6094642;23;20424;-75
2023/10/08 10:00:49;;;;;;;10.17;6.83;;;20.30;87.80;;;;;;6091243;23;20384;-75
2023/10/08 10:03:18;;;;;;;13.03;5.23;;;20.30;87.80;;;;;;6119088;23;20424;-75
2023/10/08 10:05:44;;;;;;;12.00;5.97;;;20.30;87.90;;;;;;6067042;23;20381;-75
2023/10/08 10:08:11;;;;;;;9.70;5.67;;;20.30;88.10;;;;;;6088861;23;20368;-75
2023/10/08 10:10:38;;;;;;;9.30;5.90;;;20.40;88.10;;;;;;6066217;23;20396;-75
2023/10/08 10:13:07;;;;;;;10.37;5.07;;;20.50;88.20;;;;;;6065838;23;20444;-76
2023/10/08 10:15:35;;;;;;;16.13;7.17;;;20.60;87.40;;;;;;6068013;23;20714;-75
2023/10/08 10:18:31;;;;;;;12.63;6.80;;;20.70;86.50;;;;;;6116776;23;20376;-75
2023/10/08 10:21:12;;;;;;;12.40;7.67;;;20.70;85.90;;;;;;6070843;23;20385;-76
2023/10/08 10:23:40;;;;;;;9.20;5.40;;;20.80;85.60;;;;;;6089797;23;20467;-74
2023/10/08 10:26:23;;;;;;;10.07;5.53;;;21.00;86.10;;;;;;6115909;23;20380;-74
2023/10/08 10:29:09;;;;;;;10.00;5.77;;;21.10;85.20;;;;;;6091728;23;20353;-75
2023/10/08 10:31:53;;;;;;;21.03;7.33;;;21.20;84.60;;;;;;6066828;23;20476;-75
2023/10/08 10:34:22;;;;;;;14.60;7.43;;;21.20;83.20;;;;;;6092926;23;20412;-75
2023/10/08 10:36:55;;;;;;;16.10;7.70;;;21.10;83.80;;;;;;6090573;23;20412;-75
2023/10/08 10:39:27;;;;;;;17.83;8.10;;;21.00;84.40;;;;;;6091401;23;20464;-76
2023/10/08 10:42:05;;;;;;;10.43;6.17;;;20.80;85.50;;;;;;6092092;23;20377;-76
2023/10/08 10:44:33;;;;;;;21.23;8.60;;;20.90;86.30;;;;;;6064822;23;20413;-74
2023/10/08 10:57:54;;;;;;;8.60;5.37;;;21.20;85.60;;;;;;6085924;23;20433;-75
2023/10/08 11:03:02;;;;;;;8.83;5.40;;;21.50;84.80;;;;;;6086588;23;20370;-73
2023/10/08 11:05:29;;;;;;;13.53;6.90;;;21.60;83.60;;;;;;6085007;23;20494;-75
2023/10/08 11:08:14;;;;;;;8.33;5.20;;;21.70;82.30;;;;;;6083806;23;20385;-74
2023/10/08 11:10:48;;;;;;;11.53;6.40;;;21.60;82.20;;;;;;6083846;23;20412;-76
2023/10/08 11:13:14;;;;;;;20.10;8.23;;;21.70;81.90;;;;;;6058191;23;20420;-75
2023/10/08 11:15:49;;;;;;;21.73;9.30;;;21.70;81.90;;;;;;6084018;23;20397;-75
2023/10/08 11:18:16;;;;;;;14.67;7.03;;;21.70;82.00;;;;;;6061614;23;20370;-76
2023/10/08 11:20:46;;;;;;;17.13;6.70;;;21.60;82.20;;;;;;6076423;23;20381;-74
2023/10/08 11:23:34;;;;;;;15.10;7.57;;;21.70;82.30;;;;;;6114168;23;20389;-74
2023/10/08 11:26:06;;;;;;;13.13;7.17;;;21.80;82.00;;;;;;6115323;23;20384;-74
2023/10/08 11:28:41;;;;;;;20.13;8.50;;;21.90;82.20;;;;;;6094565;23;20396;-76
2023/10/08 11:31:10;;;;;;;12.87;8.67;;;21.90;82.00;;;;;;6114185;23;20364;-74
2023/10/08 11:33:53;;;;;;;16.70;8.87;;;21.90;81.70;;;;;;6089961;23;20416;-75
2023/10/08 11:36:27;;;;;;;17.80;9.20;;;21.90;82.30;;;;;;6114412;23;20404;-75
2023/10/08 11:39:08;;;;;;;13.07;8.27;;;21.90;82.10;;;;;;6115697;23;20894;-76
2023/10/08 11:41:49;;;;;;;9.60;6.87;;;21.90;82.30;;;;;;6092550;23;20377;-75
2023/10/08 11:44:19;;;;;;;13.30;9.00;;;22.00;82.30;;;;;;6116237;23;20400;-73
2023/10/08 11:46:51;;;;;;;12.03;7.20;;;22.00;82.00;;;;;;6092788;23;20388;-75
2023/10/08 11:49:17;;;;;;;14.83;9.03;;;22.90;86.60;;;;;;6114130;23;20388;-73
2023/10/08 11:51:46;;;;;;;10.70;8.50;;;22.10;87.40;;;;;;6090533;23;20405;-75
2023/10/08 11:54:12;;;;;;;10.03;7.30;;;22.10;94.80;;;;;;6088412;23;20412;-76
2023/10/08 11:56:39;;;;;;;16.37;8.30;;;22.00;96.20;;;;;;6091463;23;20452;-78
2023/10/08 11:59:08;;;;;;;23.90;10.43;;;22.10;95.40;;;;;;6118623;23;20388;-75
2023/10/08 12:01:42;;;;;;;22.93;12.63;;;22.00;94.70;;;;;;6092491;23;20365;-75
2023/10/08 12:04:18;;;;;;;13.60;9.47;;;21.80;94.70;;;;;;6093891;23;20405;-78
2023/10/08 12:06:47;;;;;;;17.47;10.10;;;21.70;94.90;;;;;;6091642;23;20406;-76
2023/10/08 12:09:15;;;;;;;18.83;10.10;;;21.60;94.70;;;;;;6116735;23;20357;-78
2023/10/08 12:11:42;;;;;;;17.17;9.57;;;21.50;94.00;;;;;;6119187;23;20426;-75
2023/10/08 12:14:08;;;;;;;20.47;11.03;;;21.70;94.00;;;;;;6092132;23;20416;-76
2023/10/08 12:16:39;;;;;;;12.97;9.23;;;21.60;93.10;;;;;;6115820;23;20419;-75
2023/10/08 12:19:15;;;;;;;12.10;8.23;;;21.60;91.00;;;;;;6118510;23;20416;-74
2023/10/08 12:21:47;;;;;;;8.60;6.10;;;21.50;85.60;;;;;;6121688;23;20372;-76
2023/10/08 12:24:14;;;;;;;13.23;8.40;;;21.50;86.00;;;;;;6123851;23;20429;-75
2023/10/08 12:26:45;;;;;;;14.60;8.70;;;21.60;85.70;;;;;;6122972;23;20406;-75
2023/10/08 12:29:16;;;;;;;14.57;9.73;;;21.60;85.90;;;;;;6121101;23;20155;-74
2023/10/08 12:31:53;;;;;;;18.67;9.13;;;21.60;85.60;;;;;;6121486;23;20498;-75
2023/10/08 12:34:22;;;;;;;21.67;11.30;;;21.60;85.90;;;;;;6147074;23;20403;-75
2023/10/08 12:36:48;;;;;;;16.83;9.57;;;21.60;86.20;;;;;;6144705;23;20392;-76
2023/10/08 12:39:16;;;;;;;16.77;10.00;;;21.40;87.50;;;;;;6145609;23;20380;-75
2023/10/08 12:41:45;;;;;;;14.07;9.47;;;21.40;87.50;;;;;;6147063;23;20521;-76
2023/10/08 12:44:15;;;;;;;16.93;10.23;;;21.40;88.10;;;;;;6148571;23;20379;-75
2023/10/08 12:46:43;;;;;;;14.70;9.23;;;21.50;88.10;;;;;;6100409;23;20446;-74
2023/10/08 12:49:11;;;;;;;17.10;10.43;;;21.50;88.10;;;;;;6146032;23;20468;-74
2023/10/08 12:51:41;;;;;;;18.33;11.40;;;21.50;88.20;;;;;;6149314;23;20444;-77
2023/10/08 12:54:08;;;;;;;20.80;12.20;;;21.50;88.70;;;;;;6126013;23;20399;-74
2023/10/08 12:56:44;;;;;;;18.90;12.30;;;21.40;89.00;;;;;;6125294;23;20368;-77
2023/10/08 12:59:20;;;;;;;24.57;13.40;;;21.30;89.70;;;;;;6146561;23;20390;-76
2023/10/08 13:01:50;;;;;;;20.90;12.87;;;21.20;90.10;;;;;;6146295;23;20442;-76
2023/10/08 13:04:27;;;;;;;19.33;10.67;;;21.20;90.60;;;;;;6145888;23;20408;-77
2023/10/08 13:06:57;;;;;;;16.77;11.30;;;21.10;90.80;;;;;;6122974;23;20402;-75
2023/10/08 13:09:36;;;;;;;19.50;10.77;;;21.10;91.20;;;;;;6147169;23;20360;-74
2023/10/08 13:12:04;;;;;;;19.73;12.13;;;21.00;91.20;;;;;;6121219;23;20423;-76
2023/10/08 13:14:34;;;;;;;21.10;11.13;;;20.90;91.60;;;;;;6146407;23;20399;-75
2023/10/08 13:17:01;;;;;;;21.37;10.53;;;20.90;92.00;;;;;;6123184;23;20372;-75
2023/10/08 13:19:29;;;;;;;17.67;9.67;;;20.90;92.30;;;;;;6145021;23;20370;-77
2023/10/08 13:21:55;;;;;;;22.70;11.10;;;21.00;92.30;;;;;;6148915;23;20390;-77
2023/10/08 13:24:22;;;;;;;19.53;12.10;;;21.10;92.20;;;;;;6149042;23;20672;-77
2023/10/08 13:26:48;;;;;;;21.83;9.93;;;21.20;91.80;;;;;;6124056;23;20148;-76
2023/10/08 13:29:16;;;;;;;16.73;9.93;;;21.30;91.70;;;;;;6124769;23;20379;-76
2023/10/08 13:31:45;;;;;;;21.90;11.90;;;21.40;91.50;;;;;;6147016;23;20179;-74
2023/10/08 13:34:12;;;;;;;16.77;11.10;;;21.40;91.10;;;;;;6145430;23;20399;-76
2023/10/08 13:36:40;;;;;;;14.50;9.70;;;21.40;91.10;;;;;;6148914;23;20364;-78
2023/10/08 13:39:09;;;;;;;12.87;7.87;;;21.30;91.10;;;;;;6147410;23;20368;-76
2023/10/08 13:41:38;;;;;;;14.80;9.70;;;21.20;91.30;;;;;;6151013;23;20375;-76
2023/10/08 13:44:05;;;;;;;19.63;10.67;;;21.20;91.70;;;;;;6123360;23;20396;-78
2023/10/08 13:46:35;;;;;;;13.40;8.60;;;21.20;91.90;;;;;;6118606;23;20397;-76
2023/10/08 13:49:06;;;;;;;19.07;11.23;;;21.20;92.00;;;;;;6095977;23;20385;-78
2023/10/08 13:51:34;;;;;;;14.47;8.80;;;21.30;91.70;;;;;;6045995;23;20435;-77
2023/10/08 13:54:09;;;;;;;15.87;9.90;;;21.30;91.90;;;;;;6116532;23;20596;-76
2023/10/08 13:56:38;;;;;;;15.60;9.03;;;21.30;91.80;;;;;;6090289;23;20369;-77
2023/10/08 13:59:14;;;;;;;12.87;8.67;;;21.40;92.00;;;;;;6054068;23;20684;-78
2023/10/08 14:01:45;;;;;;;13.03;9.27;;;21.40;91.90;;;;;;6126909;23;20384;-76
2023/10/08 14:04:15;;;;;;;16.37;9.87;;;21.30;92.10;;;;;;6120886;23;20451;-75
2023/10/08 14:06:47;;;;;;;11.57;8.50;;;21.30;92.20;;;;;;6125882;23;20411;-77
2023/10/08 14:09:21;;;;;;;16.43;11.27;;;21.30;92.40;;;;;;6126677;23;20365;-77
2023/10/08 14:12:04;;;;;;;11.10;9.83;;;21.30;92.30;;;;;;6150619;23;20407;-78
2023/10/08 14:14:34;;;;;;;15.80;11.70;;;21.30;92.40;;;;;;6079110;23;20499;-78
2023/10/08 14:17:06;;;;;;;16.57;10.90;;;21.20;92.40;;;;;;6124103;23;20829;-76
2023/10/08 14:19:51;;;;;;;16.10;10.77;;;21.20;92.60;;;;;;6149170;23;20436;-74
2023/10/08 14:22:22;;;;;;;19.87;11.50;;;21.10;93.40;;;;;;6014155;23;20394;-76
2023/10/08 14:24:58;;;;;;;18.90;11.03;;;21.10;93.00;;;;;;6125514;23;20419;-76
2023/10/08 14:27:32;;;;;;;16.73;12.90;;;21.00;93.30;;;;;;6125267;23;20395;-77
2023/10/08 14:30:01;;;;;;;20.07;10.97;;;20.80;93.80;;;;;;6102276;23;20359;-76